sensor_id;sensor_type;location;lat;lon;timestamp;pressure;altitude;pressure_sealevel;temperature;humidity
31096;BME280;17749;51.962;8.560;2023-09-08T05:02:20;100331.56;;;16.16;100.00
31096;BME280;17749;51.962;8.560;2023-09-08T05:04:47;100336.88;;;16.17;100.00
31096;BME280;17749;51.962;8.560;2023-09-08T05:07:15;100337.72;;;16.18;100.00
31096;BME280;17749;51.962;8.560;2023-09-08T05:09:43;100335.13;;;16.16;100.00
31096;BME280;17749;51.962;8.560;2023-09-08T05:12:10;100339.38;;;16.20;100.00
31096;BME280;17749;51.962;8.560;2023-09-08T05:14:48;100341.97;;;16.22;100.00
31096;BME280;17749;51.962;8.560;2023-09-08T05:17:16;100341.09;;;16.21;100.00
31096;BME280;17749;51.962;8.560;2023-09-08T05:19:43;100337.47;;;16.23;100.00
31096;BME280;17749;51.962;8.560;2023-09-08T05:22:10;100344.38;;;16.27;100.00
31096;BME280;17749;51.962;8.560;2023-09-08T05:24:37;100340.56;;;16.31;100.00
31096;BME280;17749;51.962;8.560;2023-09-08T05:27:05;100342.25;;;16.32;100.00
31096;BME280;17749;51.962;8.560;2023-09-08T05:29:32;100347.66;;;16.32;100.00
31096;BME280;17749;51.962;8.560;2023-09-08T05:31:59;100345.75;;;16.34;100.00
31096;BME280;17749;51.962;8.560;2023-09-08T05:34:27;100341.81;;;16.39;100.00
31096;BME280;17749;51.962;8.560;2023-09-08T05:36:54;100343.44;;;16.42;100.00
31096;BME280;17749;51.962;8.560;2023-09-08T05:39:22;100339.63;;;16.46;100.00
31096;BME280;17749;51.962;8.560;2023-09-08T05:41:49;100344.63;;;16.52;100.00
31096;BME280;17749;51.962;8.560;2023-09-08T05:44:16;100342.31;;;16.60;100.00
31096;BME280;17749;51.962;8.560;2023-09-08T05:46:44;100341.78;;;16.70;100.00
31096;BME280;17749;51.962;8.560;2023-09-08T05:49:12;100333.84;;;16.82;100.00
31096;BME280;17749;51.962;8.560;2023-09-08T05:51:44;100331.81;;;17.00;100.00
31096;BME280;17749;51.962;8.560;2023-09-08T05:54:30;100327.75;;;17.22;100.00
31096;BME280;17749;51.962;8.560;2023-09-08T05:56:58;100336.28;;;17.43;100.00
31096;BME280;17749;51.962;8.560;2023-09-08T06:00:02;100337.50;;;17.51;100.00
31096;BME280;17749;51.962;8.560;2023-09-08T06:02:41;100340.41;;;17.75;100.00
31096;BME280;17749;51.962;8.560;2023-09-08T06:05:11;100337.19;;;17.98;100.00
31096;BME280;17749;51.962;8.560;2023-09-08T06:07:38;100338.94;;;18.11;100.00
31096;BME280;17749;51.962;8.560;2023-09-08T06:10:11;100338.13;;;18.24;100.00
31096;BME280;17749;51.962;8.560;2023-09-08T06:12:38;100333.81;;;18.34;100.00
31096;BME280;17749;51.962;8.560;2023-09-08T06:15:06;100336.63;;;18.45;100.00
31096;BME280;17749;51.962;8.560;2023-09-08T06:17:35;100326.94;;;18.68;100.00
31096;BME280;17749;51.962;8.560;2023-09-08T06:20:03;100327.63;;;18.85;100.00
31096;BME280;17749;51.962;8.560;2023-09-08T06:22:30;100329.00;;;19.03;100.00
31096;BME280;17749;51.962;8.560;2023-09-08T06:24:57;100321.50;;;19.19;100.00
31096;BME280;17749;51.962;8.560;2023-09-08T06:27:25;100325.09;;;19.44;100.00
31096;BME280;17749;51.962;8.560;2023-09-08T06:29:57;100319.31;;;19.74;100.00
31096;BME280;17749;51.962;8.560;2023-09-08T06:32:25;100322.91;;;20.10;100.00
31096;BME280;17749;51.962;8.560;2023-09-08T06:34:52;100325.47;;;20.47;100.00
31096;BME280;17749;51.962;8.560;2023-09-08T06:37:19;100315.94;;;20.88;100.00
31096;BME280;17749;51.962;8.560;2023-09-08T06:39:46;100314.56;;;21.27;100.00
31096;BME280;17749;51.962;8.560;2023-09-08T06:42:14;100317.78;;;21.55;100.00
31096;BME280;17749;51.962;8.560;2023-09-08T06:44:48;100326.41;;;21.92;100.00
31096;BME280;17749;51.962;8.560;2023-09-08T06:47:15;100318.31;;;22.13;100.00
31096;BME280;17749;51.962;8.560;2023-09-08T06:49:42;100319.66;;;22.40;100.00
31096;BME280;17749;51.962;8.560;2023-09-08T06:52:10;100326.44;;;22.66;100.00
31096;BME280;17749;51.962;8.560;2023-09-08T06:54:36;100321.44;;;22.92;100.00
31096;BME280;17749;51.962;8.560;2023-09-08T06:57:04;100324.38;;;23.10;100.00
31096;BME280;17749;51.962;8.560;2023-09-08T06:59:31;100323.16;;;23.24;100.00
31096;BME280;17749;51.962;8.560;2023-09-08T07:01:58;100333.38;;;23.51;100.00
31096;BME280;17749;51.962;8.560;2023-09-08T07:04:25;100327.28;;;23.78;100.00
31096;BME280;17749;51.962;8.560;2023-09-08T07:06:53;100332.31;;;24.02;100.00
31096;BME280;17749;51.962;8.560;2023-09-08T07:09:23;100323.72;;;24.07;100.00
31096;BME280;17749;51.962;8.560;2023-09-08T07:11:50;100327.75;;;24.22;100.00
31096;BME280;17749;51.962;8.560;2023-09-08T07:14:17;100326.88;;;24.51;100.00
31096;BME280;17749;51.962;8.560;2023-09-08T07:16:44;100329.72;;;24.59;100.00
31096;BME280;17749;51.962;8.560;2023-09-08T07:19:12;100322.25;;;24.71;100.00
31096;BME280;17749;51.962;8.560;2023-09-08T07:21:39;100331.38;;;24.89;100.00
31096;BME280;17749;51.962;8.560;2023-09-08T07:24:07;100327.34;;;24.93;100.00
31096;BME280;17749;51.962;8.560;2023-09-08T07:26:34;100322.41;;;25.07;100.00
31096;BME280;17749;51.962;8.560;2023-09-08T07:29:01;100323.84;;;25.11;100.00
31096;BME280;17749;51.962;8.560;2023-09-08T07:31:29;100328.41;;;25.20;100.00
31096;BME280;17749;51.962;8.560;2023-09-08T07:33:56;100329.34;;;25.56;100.00
31096;BME280;17749;51.962;8.560;2023-09-08T07:36:23;100325.94;;;25.72;100.00
31096;BME280;17749;51.962;8.560;2023-09-08T07:38:51;100328.41;;;25.75;100.00
31096;BME280;17749;51.962;8.560;2023-09-08T07:41:19;100325.28;;;25.88;100.00
31096;BME280;17749;51.962;8.560;2023-09-08T07:43:46;100330.03;;;26.04;100.00
31096;BME280;17749;51.962;8.560;2023-09-08T07:46:18;100330.38;;;26.19;100.00
31096;BME280;17749;51.962;8.560;2023-09-08T07:48:45;100321.88;;;26.04;100.00
31096;BME280;17749;51.962;8.560;2023-09-08T07:51:12;100324.84;;;25.93;100.00
31096;BME280;17749;51.962;8.560;2023-09-08T07:53:39;100331.50;;;25.80;100.00
31096;BME280;17749;51.962;8.560;2023-09-08T07:56:06;100321.22;;;25.74;100.00
31096;BME280;17749;51.962;8.560;2023-09-08T07:58:34;100324.47;;;25.60;100.00
31096;BME280;17749;51.962;8.560;2023-09-08T08:01:01;100319.44;;;25.38;100.00
31096;BME280;17749;51.962;8.560;2023-09-08T08:03:28;100328.16;;;25.04;100.00
31096;BME280;17749;51.962;8.560;2023-09-08T08:05:56;100319.97;;;24.76;100.00
31096;BME280;17749;51.962;8.560;2023-09-08T08:08:25;100322.84;;;24.65;100.00
31096;BME280;17749;51.962;8.560;2023-09-08T08:10:52;100328.88;;;24.39;100.00
31096;BME280;17749;51.962;8.560;2023-09-08T08:13:19;100324.31;;;24.40;100.00
31096;BME280;17749;51.962;8.560;2023-09-08T08:15:46;100323.44;;;24.49;100.00
31096;BME280;17749;51.962;8.560;2023-09-08T08:18:14;100324.03;;;24.53;100.00
31096;BME280;17749;51.962;8.560;2023-09-08T08:20:41;100337.19;;;24.57;100.00
31096;BME280;17749;51.962;8.560;2023-09-08T08:23:08;100323.44;;;24.59;100.00
31096;BME280;17749;51.962;8.560;2023-09-08T08:25:35;100325.56;;;24.65;100.00
31096;BME280;17749;51.962;8.560;2023-09-08T08:28:02;100332.75;;;24.66;100.00
31096;BME280;17749;51.962;8.560;2023-09-08T08:30:29;100327.25;;;24.76;100.00
31096;BME280;17749;51.962;8.560;2023-09-08T08:32:56;100330.97;;;24.84;100.00
31096;BME280;17749;51.962;8.560;2023-09-08T08:35:24;100331.69;;;24.86;100.00
31096;BME280;17749;51.962;8.560;2023-09-08T08:37:51;100326.50;;;24.83;100.00
31096;BME280;17749;51.962;8.560;2023-09-08T08:40:18;100322.81;;;24.84;100.00
31096;BME280;17749;51.962;8.560;2023-09-08T08:42:45;100330.66;;;24.87;100.00
31096;BME280;17749;51.962;8.560;2023-09-08T08:45:12;100318.34;;;24.83;100.00
31096;BME280;17749;51.962;8.560;2023-09-08T08:47:41;100323.91;;;24.91;100.00
31096;BME280;17749;51.962;8.560;2023-09-08T08:50:09;100324.19;;;24.98;100.00
31096;BME280;17749;51.962;8.560;2023-09-08T08:52:38;100317.56;;;25.01;100.00
31096;BME280;17749;51.962;8.560;2023-09-08T08:55:23;100316.97;;;25.07;100.00
31096;BME280;17749;51.962;8.560;2023-09-08T08:57:50;100315.78;;;25.19;100.00
31096;BME280;17749;51.962;8.560;2023-09-08T09:00:18;100312.88;;;25.30;100.00
31096;BME280;17749;51.962;8.560;2023-09-08T09:02:46;100316.56;;;25.39;100.00
31096;BME280;17749;51.962;8.560;2023-09-08T09:05:34;100308.47;;;25.47;100.00
31096;BME280;17749;51.962;8.560;2023-09-08T09:08:03;100313.56;;;25.60;100.00
31096;BME280;17749;51.962;8.560;2023-09-08T09:10:32;100316.59;;;25.75;100.00
31096;BME280;17749;51.962;8.560;2023-09-08T09:12:59;100320.22;;;25.93;100.00
31096;BME280;17749;51.962;8.560;2023-09-08T09:15:29;100319.06;;;26.14;100.00
31096;BME280;17749;51.962;8.560;2023-09-08T09:18:07;100317.16;;;26.32;100.00
31096;BME280;17749;51.962;8.560;2023-09-08T09:20:35;100314.41;;;26.50;100.00
31096;BME280;17749;51.962;8.560;2023-09-08T09:23:02;100313.56;;;26.67;100.00
31096;BME280;17749;51.962;8.560;2023-09-08T09:25:31;100317.75;;;26.88;100.00
31096;BME280;17749;51.962;8.560;2023-09-08T09:28:00;100317.16;;;27.02;100.00
31096;BME280;17749;51.962;8.560;2023-09-08T09:30:40;100316.50;;;27.08;100.00
31096;BME280;17749;51.962;8.560;2023-09-08T09:33:13;100308.31;;;27.17;100.00
31096;BME280;17749;51.962;8.560;2023-09-08T09:35:51;100314.81;;;27.16;100.00
31096;BME280;17749;51.962;8.560;2023-09-08T09:38:27;100307.19;;;27.19;100.00
31096;BME280;17749;51.962;8.560;2023-09-08T09:40:55;100312.84;;;27.26;100.00
31096;BME280;17749;51.962;8.560;2023-09-08T09:43:22;100302.97;;;27.33;100.00
31096;BME280;17749;51.962;8.560;2023-09-08T09:45:53;100298.22;;;27.43;100.00
31096;BME280;17749;51.962;8.560;2023-09-08T09:48:21;100299.47;;;27.57;100.00
31096;BME280;17749;51.962;8.560;2023-09-08T09:50:50;100296.25;;;27.70;100.00
31096;BME280;17749;51.962;8.560;2023-09-08T09:53:17;100285.69;;;27.83;100.00
31096;BME280;17749;51.962;8.560;2023-09-08T09:55:45;100289.47;;;27.90;99.99
31096;BME280;17749;51.962;8.560;2023-09-08T09:58:13;100285.34;;;27.94;100.00
31096;BME280;17749;51.962;8.560;2023-09-08T10:00:41;100291.38;;;28.06;99.17
31096;BME280;17749;51.962;8.560;2023-09-08T10:03:13;100292.22;;;28.15;98.67
31096;BME280;17749;51.962;8.560;2023-09-08T10:05:41;100294.94;;;28.23;100.00
31096;BME280;17749;51.962;8.560;2023-09-08T10:08:08;100285.72;;;28.32;98.14
31096;BME280;17749;51.962;8.560;2023-09-08T10:10:36;100283.63;;;28.42;96.50
31096;BME280;17749;51.962;8.560;2023-09-08T10:13:05;100286.41;;;28.51;100.00
31096;BME280;17749;51.962;8.560;2023-09-08T10:15:33;100284.63;;;28.66;96.66
31096;BME280;17749;51.962;8.560;2023-09-08T10:18:04;100279.81;;;28.76;99.10
31096;BME280;17749;51.962;8.560;2023-09-08T10:20:33;100282.91;;;28.81;93.29
31096;BME280;17749;51.962;8.560;2023-09-08T10:23:12;100280.72;;;28.77;94.36
31096;BME280;17749;51.962;8.560;2023-09-08T10:25:43;100280.19;;;28.73;95.05
31096;BME280;17749;51.962;8.560;2023-09-08T10:28:12;100277.28;;;28.75;94.89
31096;BME280;17749;51.962;8.560;2023-09-08T10:30:40;100276.03;;;28.86;89.98
31096;BME280;17749;51.962;8.560;2023-09-08T10:33:09;100275.69;;;28.89;90.60
31096;BME280;17749;51.962;8.560;2023-09-08T10:35:38;100266.78;;;28.87;84.88
31096;BME280;17749;51.962;8.560;2023-09-08T10:38:28;100265.97;;;28.78;87.59
31096;BME280;17749;51.962;8.560;2023-09-08T10:43:55;100264.44;;;28.67;84.85
31096;BME280;17749;51.962;8.560;2023-09-08T10:46:26;100260.31;;;28.71;89.49
31096;BME280;17749;51.962;8.560;2023-09-08T10:48:55;100262.38;;;28.77;91.76
31096;BME280;17749;51.962;8.560;2023-09-08T10:51:24;100261.50;;;28.85;90.90
31096;BME280;17749;51.962;8.560;2023-09-08T10:53:51;100272.06;;;28.96;87.53
31096;BME280;17749;51.962;8.560;2023-09-08T10:56:18;100268.13;;;29.07;90.84
31096;BME280;17749;51.962;8.560;2023-09-08T10:58:50;100268.91;;;29.24;90.03
31096;BME280;17749;51.962;8.560;2023-09-08T11:01:19;100270.28;;;29.20;89.82
31096;BME280;17749;51.962;8.560;2023-09-08T11:03:49;100268.91;;;29.24;91.84
31096;BME280;17749;51.962;8.560;2023-09-08T11:06:19;100262.50;;;29.32;91.21
31096;BME280;17749;51.962;8.560;2023-09-08T11:08:50;100264.22;;;29.33;91.23
31096;BME280;17749;51.962;8.560;2023-09-08T11:11:23;100264.13;;;29.49;92.39
31096;BME280;17749;51.962;8.560;2023-09-08T11:13:50;100266.06;;;29.40;91.84
31096;BME280;17749;51.962;8.560;2023-09-08T11:16:17;100271.41;;;29.34;90.73
31096;BME280;17749;51.962;8.560;2023-09-08T11:18:51;100270.41;;;29.35;88.41
31096;BME280;17749;51.962;8.560;2023-09-08T11:21:18;100263.00;;;29.35;90.17
31096;BME280;17749;51.962;8.560;2023-09-08T11:23:45;100261.75;;;29.46;89.58
31096;BME280;17749;51.962;8.560;2023-09-08T11:26:12;100263.38;;;29.55;90.96
31096;BME280;17749;51.962;8.560;2023-09-08T11:28:41;100264.75;;;29.59;89.57
31096;BME280;17749;51.962;8.560;2023-09-08T11:31:11;100265.13;;;29.56;91.45
31096;BME280;17749;51.962;8.560;2023-09-08T11:33:38;100260.00;;;29.53;88.14
31096;BME280;17749;51.962;8.560;2023-09-08T11:36:13;100264.06;;;29.65;89.53
31096;BME280;17749;51.962;8.560;2023-09-08T11:38:43;100265.41;;;29.69;84.55
31096;BME280;17749;51.962;8.560;2023-09-08T11:41:11;100259.59;;;29.64;84.57
31096;BME280;17749;51.962;8.560;2023-09-08T11:43:39;100258.25;;;29.83;88.30
31096;BME280;17749;51.962;8.560;2023-09-08T11:46:06;100253.28;;;29.87;88.65
31096;BME280;17749;51.962;8.560;2023-09-08T11:48:33;100250.81;;;29.92;87.10
31096;BME280;17749;51.962;8.560;2023-09-08T11:51:01;100248.06;;;29.92;83.08
31096;BME280;17749;51.962;8.560;2023-09-08T11:53:28;100240.56;;;29.86;81.98
31096;BME280;17749;51.962;8.560;2023-09-08T11:55:55;100245.38;;;29.84;85.52
31096;BME280;17749;51.962;8.560;2023-09-08T11:58:23;100238.88;;;29.85;84.74
31096;BME280;17749;51.962;8.560;2023-09-08T12:00:51;100236.84;;;29.79;87.49
31096;BME280;17749;51.962;8.560;2023-09-08T12:03:18;100243.31;;;29.86;88.64
31096;BME280;17749;51.962;8.560;2023-09-08T12:05:51;100234.72;;;29.89;84.22
31096;BME280;17749;51.962;8.560;2023-09-08T12:08:19;100234.84;;;29.96;85.97
31096;BME280;17749;51.962;8.560;2023-09-08T12:10:46;100227.84;;;29.93;83.95
31096;BME280;17749;51.962;8.560;2023-09-08T12:13:20;100227.84;;;29.93;80.29
31096;BME280;17749;51.962;8.560;2023-09-08T12:15:47;100228.59;;;30.02;84.18
31096;BME280;17749;51.962;8.560;2023-09-08T12:18:17;100226.72;;;30.02;82.98
31096;BME280;17749;51.962;8.560;2023-09-08T12:20:44;100224.41;;;29.91;82.22
31096;BME280;17749;51.962;8.560;2023-09-08T12:23:21;100223.56;;;29.90;79.07
31096;BME280;17749;51.962;8.560;2023-09-08T12:26:01;100220.13;;;29.88;83.92
31096;BME280;17749;51.962;8.560;2023-09-08T12:28:56;100220.28;;;29.95;85.14
31096;BME280;17749;51.962;8.560;2023-09-08T12:31:25;100219.28;;;29.88;84.39
31096;BME280;17749;51.962;8.560;2023-09-08T12:34:12;100217.69;;;29.93;84.30
31096;BME280;17749;51.962;8.560;2023-09-08T12:36:44;100206.72;;;29.70;80.47
31096;BME280;17749;51.962;8.560;2023-09-08T12:39:24;100216.00;;;29.69;83.68
31096;BME280;17749;51.962;8.560;2023-09-08T12:41:57;100219.06;;;29.75;84.73
31096;BME280;17749;51.962;8.560;2023-09-08T12:49:00;100207.06;;;29.44;80.67
31096;BME280;17749;51.962;8.560;2023-09-08T12:51:27;100214.75;;;29.49;77.88
31096;BME280;17749;51.962;8.560;2023-09-08T12:53:54;100209.25;;;29.49;81.78
31096;BME280;17749;51.962;8.560;2023-09-08T12:56:21;100210.97;;;29.50;79.29
31096;BME280;17749;51.962;8.560;2023-09-08T12:58:52;100208.59;;;29.47;76.71
31096;BME280;17749;51.962;8.560;2023-09-08T13:01:22;100206.50;;;29.49;78.70
31096;BME280;17749;51.962;8.560;2023-09-08T13:03:52;100206.66;;;29.56;80.29
31096;BME280;17749;51.962;8.560;2023-09-08T13:06:18;100206.09;;;29.60;82.08
31096;BME280;17749;51.962;8.560;2023-09-08T13:08:46;100201.47;;;29.61;83.26
31096;BME280;17749;51.962;8.560;2023-09-08T13:11:12;100197.38;;;29.57;80.67
31096;BME280;17749;51.962;8.560;2023-09-08T13:13:40;100198.91;;;29.59;80.43
31096;BME280;17749;51.962;8.560;2023-09-08T13:16:07;100194.09;;;29.61;81.26
31096;BME280;17749;51.962;8.560;2023-09-08T13:18:34;100191.72;;;29.58;81.80
31096;BME280;17749;51.962;8.560;2023-09-08T13:21:06;100186.94;;;29.52;81.76
31096;BME280;17749;51.962;8.560;2023-09-08T13:23:33;100191.09;;;29.48;83.48
31096;BME280;17749;51.962;8.560;2023-09-08T13:26:00;100189.88;;;29.51;84.89
31096;BME280;17749;51.962;8.560;2023-09-08T13:28:26;100196.59;;;29.48;85.54
31096;BME280;17749;51.962;8.560;2023-09-08T13:30:53;100186.25;;;29.50;82.26
31096;BME280;17749;51.962;8.560;2023-09-08T13:33:20;100191.09;;;29.48;83.55
31096;BME280;17749;51.962;8.560;2023-09-08T13:35:47;100179.31;;;29.39;81.36
31096;BME280;17749;51.962;8.560;2023-09-08T13:38:14;100184.47;;;29.42;80.80
31096;BME280;17749;51.962;8.560;2023-09-08T13:40:41;100170.91;;;29.41;81.39
31096;BME280;17749;51.962;8.560;2023-09-08T13:43:08;100179.16;;;29.41;83.32
31096;BME280;17749;51.962;8.560;2023-09-08T13:45:35;100174.41;;;29.35;82.62
31096;BME280;17749;51.962;8.560;2023-09-08T13:48:04;100167.19;;;29.34;82.39
31096;BME280;17749;51.962;8.560;2023-09-08T13:50:33;100174.09;;;29.30;85.07
31096;BME280;17749;51.962;8.560;2023-09-08T13:53:03;100163.75;;;29.32;84.29
31096;BME280;17749;51.962;8.560;2023-09-08T13:55:30;100165.91;;;29.21;82.32
31096;BME280;17749;51.962;8.560;2023-09-08T13:58:00;100160.13;;;29.16;80.99
31096;BME280;17749;51.962;8.560;2023-09-08T14:00:29;100161.66;;;29.11;84.15
31096;BME280;17749;51.962;8.560;2023-09-08T14:02:58;100164.25;;;29.12;86.06
31096;BME280;17749;51.962;8.560;2023-09-08T14:05:30;100163.41;;;29.12;84.39
31096;BME280;17749;51.962;8.560;2023-09-08T14:08:03;100167.34;;;29.09;85.20
31096;BME280;17749;51.962;8.560;2023-09-08T14:10:45;100154.63;;;29.16;85.34
31096;BME280;17749;51.962;8.560;2023-09-08T14:13:16;100163.41;;;29.12;84.20
31096;BME280;17749;51.962;8.560;2023-09-08T14:15:46;100169.41;;;29.07;83.43
31096;BME280;17749;51.962;8.560;2023-09-08T14:18:15;100164.09;;;29.05;84.71
31096;BME280;17749;51.962;8.560;2023-09-08T14:20:44;100164.63;;;29.01;84.93
31096;BME280;17749;51.962;8.560;2023-09-08T14:23:11;100160.69;;;29.03;84.97
31096;BME280;17749;51.962;8.560;2023-09-08T14:25:38;100159.50;;;29.06;84.53
31096;BME280;17749;51.962;8.560;2023-09-08T14:28:06;100153.84;;;28.99;84.61
31096;BME280;17749;51.962;8.560;2023-09-08T14:30:34;100157.09;;;28.95;85.27
31096;BME280;17749;51.962;8.560;2023-09-08T14:33:01;100160.53;;;28.97;89.59
31096;BME280;17749;51.962;8.560;2023-09-08T14:35:29;100159.53;;;28.90;89.48
31096;BME280;17749;51.962;8.560;2023-09-08T14:37:57;100157.16;;;28.87;87.23
31096;BME280;17749;51.962;8.560;2023-09-08T14:40:24;100154.78;;;28.83;88.77
31096;BME280;17749;51.962;8.560;2023-09-08T14:42:51;100154.66;;;28.77;87.31
31096;BME280;17749;51.962;8.560;2023-09-08T14:45:20;100151.75;;;28.70;87.74
31096;BME280;17749;51.962;8.560;2023-09-08T14:47:47;100150.72;;;28.71;88.70
31096;BME280;17749;51.962;8.560;2023-09-08T14:50:14;100145.06;;;28.73;88.00
31096;BME280;17749;51.962;8.560;2023-09-08T14:52:42;100149.50;;;28.74;89.86
31096;BME280;17749;51.962;8.560;2023-09-08T14:55:09;100157.41;;;28.69;90.47
31096;BME280;17749;51.962;8.560;2023-09-08T14:57:36;100155.88;;;28.74;89.81
31096;BME280;17749;51.962;8.560;2023-09-08T15:00:04;100162.69;;;28.78;89.07
31096;BME280;17749;51.962;8.560;2023-09-08T15:02:31;100153.44;;;28.79;89.51
31096;BME280;17749;51.962;8.560;2023-09-08T15:04:58;100156.47;;;28.84;89.55
31096;BME280;17749;51.962;8.560;2023-09-08T15:07:25;100147.09;;;28.79;88.41
31096;BME280;17749;51.962;8.560;2023-09-08T15:09:52;100151.03;;;28.76;88.73
31096;BME280;17749;51.962;8.560;2023-09-08T15:12:19;100147.31;;;28.69;87.76
31096;BME280;17749;51.962;8.560;2023-09-08T15:14:46;100142.00;;;28.68;88.71
31096;BME280;17749;51.962;8.560;2023-09-08T15:17:13;100149.06;;;28.62;91.15
31096;BME280;17749;51.962;8.560;2023-09-08T15:19:40;100140.69;;;28.55;89.63
31096;BME280;17749;51.962;8.560;2023-09-08T15:22:07;100138.81;;;28.48;89.57
31096;BME280;17749;51.962;8.560;2023-09-08T15:24:34;100139.34;;;28.43;90.91
31096;BME280;17749;51.962;8.560;2023-09-08T15:27:01;100135.25;;;28.39;91.46
31096;BME280;17749;51.962;8.560;2023-09-08T15:29:29;100133.91;;;28.35;91.81
31096;BME280;17749;51.962;8.560;2023-09-08T15:31:57;100130.16;;;28.28;91.55
31096;BME280;17749;51.962;8.560;2023-09-08T15:34:25;100131.03;;;28.20;93.04
31096;BME280;17749;51.962;8.560;2023-09-08T15:36:53;100128.31;;;28.12;90.15
31096;BME280;17749;51.962;8.560;2023-09-08T15:39:19;100127.59;;;28.18;91.29
31096;BME280;17749;51.962;8.560;2023-09-08T15:41:47;100129.66;;;28.16;89.62
31096;BME280;17749;51.962;8.560;2023-09-08T15:44:14;100125.94;;;28.09;90.59
31096;BME280;17749;51.962;8.560;2023-09-08T15:46:41;100122.53;;;27.99;92.24
31096;BME280;17749;51.962;8.560;2023-09-08T15:49:08;100124.94;;;27.93;92.77
31096;BME280;17749;51.962;8.560;2023-09-08T15:51:36;100128.03;;;27.90;93.37
31096;BME280;17749;51.962;8.560;2023-09-08T15:54:03;100119.81;;;27.90;92.46
31096;BME280;17749;51.962;8.560;2023-09-08T15:56:30;100122.53;;;27.90;93.85
31096;BME280;17749;51.962;8.560;2023-09-08T15:58:57;100122.22;;;27.85;94.02
31096;BME280;17749;51.962;8.560;2023-09-08T16:01:25;100132.94;;;27.79;94.22
31096;BME280;17749;51.962;8.560;2023-09-08T16:03:52;100122.84;;;27.71;95.35
31096;BME280;17749;51.962;8.560;2023-09-08T16:06:19;100117.22;;;27.72;93.33
31096;BME280;17749;51.962;8.560;2023-09-08T16:08:46;100122.34;;;27.75;94.11
31096;BME280;17749;51.962;8.560;2023-09-08T16:11:14;100117.38;;;27.71;95.87
31096;BME280;17749;51.962;8.560;2023-09-08T16:13:40;100119.97;;;27.64;95.94
31096;BME280;17749;51.962;8.560;2023-09-08T16:16:07;100119.78;;;27.58;96.08
31096;BME280;17749;51.962;8.560;2023-09-08T16:18:34;100121.84;;;27.47;95.66
31096;BME280;17749;51.962;8.560;2023-09-08T16:21:01;100119.44;;;27.44;96.92
31096;BME280;17749;51.962;8.560;2023-09-08T16:23:30;100119.44;;;27.44;97.75
31096;BME280;17749;51.962;8.560;2023-09-08T16:25:57;100116.88;;;27.43;96.99
31096;BME280;17749;51.962;8.560;2023-09-08T16:28:24;100116.72;;;27.52;96.64
31096;BME280;17749;51.962;8.560;2023-09-08T16:30:51;100124.91;;;27.44;100.00
31096;BME280;17749;51.962;8.560;2023-09-08T16:33:18;100122.19;;;27.36;100.00
31096;BME280;17749;51.962;8.560;2023-09-08T16:35:45;100114.81;;;27.28;100.00
31096;BME280;17749;51.962;8.560;2023-09-08T16:38:12;100116.72;;;27.20;100.00
31096;BME280;17749;51.962;8.560;2023-09-08T16:40:41;100116.47;;;27.13;100.00
31096;BME280;17749;51.962;8.560;2023-09-08T16:43:08;100116.13;;;27.08;100.00
31096;BME280;17749;51.962;8.560;2023-09-08T16:45:35;100117.50;;;27.04;100.00
31096;BME280;17749;51.962;8.560;2023-09-08T16:48:02;100115.09;;;27.01;100.00
31096;BME280;17749;51.962;8.560;2023-09-08T16:50:29;100121.59;;;27.00;100.00
31096;BME280;17749;51.962;8.560;2023-09-08T16:52:56;100120.38;;;26.94;100.00
31096;BME280;17749;51.962;8.560;2023-09-08T16:55:23;100121.72;;;26.90;100.00
31096;BME280;17749;51.962;8.560;2023-09-08T16:57:50;100122.06;;;26.87;100.00
31096;BME280;17749;51.962;8.560;2023-09-08T17:00:17;100118.63;;;26.85;100.00
31096;BME280;17749;51.962;8.560;2023-09-08T17:02:45;100127.50;;;26.79;100.00
31096;BME280;17749;51.962;8.560;2023-09-08T17:05:12;100123.38;;;26.75;100.00
31096;BME280;17749;51.962;8.560;2023-09-08T17:07:43;100118.22;;;26.63;100.00
31096;BME280;17749;51.962;8.560;2023-09-08T17:10:10;100119.91;;;26.56;100.00
31096;BME280;17749;51.962;8.560;2023-09-08T17:12:38;100121.56;;;26.49;100.00
31096;BME280;17749;51.962;8.560;2023-09-08T17:15:06;100115.91;;;26.42;100.00
31096;BME280;17749;51.962;8.560;2023-09-08T17:17:33;100117.75;;;26.34;100.00
31096;BME280;17749;51.962;8.560;2023-09-08T17:20:00;100109.88;;;26.31;100.00
31096;BME280;17749;51.962;8.560;2023-09-08T17:22:27;100121.66;;;26.31;100.00
31096;BME280;17749;51.962;8.560;2023-09-08T17:24:55;100119.03;;;26.21;100.00
31096;BME280;17749;51.962;8.560;2023-09-08T17:27:22;100124.44;;;26.13;100.00
31096;BME280;17749;51.962;8.560;2023-09-08T17:29:49;100121.13;;;26.01;100.00
31096;BME280;17749;51.962;8.560;2023-09-08T17:32:16;100122.94;;;25.93;100.00
31096;BME280;17749;51.962;8.560;2023-09-08T17:34:43;100124.19;;;25.80;100.00
31096;BME280;17749;51.962;8.560;2023-09-08T17:37:10;100126.19;;;25.70;100.00
31096;BME280;17749;51.962;8.560;2023-09-08T17:39:37;100128.16;;;25.60;100.00
31096;BME280;17749;51.962;8.560;2023-09-08T17:42:04;100131.41;;;25.46;100.00
31096;BME280;17749;51.962;8.560;2023-09-08T17:44:31;100132.66;;;25.33;100.00
31096;BME280;17749;51.962;8.560;2023-09-08T17:46:58;100133.94;;;25.21;100.00
31096;BME280;17749;51.962;8.560;2023-09-08T17:49:27;100133.13;;;25.11;100.00
31096;BME280;17749;51.962;8.560;2023-09-08T17:51:53;100135.34;;;24.98;100.00
31096;BME280;17749;51.962;8.560;2023-09-08T17:54:21;100138.91;;;24.80;100.00
31096;BME280;17749;51.962;8.560;2023-09-08T17:56:47;100139.41;;;24.66;100.00
31096;BME280;17749;51.962;8.560;2023-09-08T17:59:14;100132.88;;;24.59;100.00
31096;BME280;17749;51.962;8.560;2023-09-08T18:01:41;100126.91;;;24.45;100.00